createdAt,value
2017-11-09T00:00:27.999Z,27.10
2017-11-09T00:02:55.670Z,26.27
2017-11-09T00:05:28.969Z,30.70
2017-11-09T00:07:56.593Z,31.53
2017-11-09T00:10:24.255Z,34.10
2017-11-09T00:12:52.512Z,27.97
2017-11-09T00:15:20.197Z,33.13
2017-11-09T00:17:48.624Z,30.27
2017-11-09T00:20:17.559Z,29.70
2017-11-09T00:22:46.089Z,32.30
2017-11-09T00:25:13.710Z,29.17
2017-11-09T00:27:41.365Z,29.63
2017-11-09T00:30:08.988Z,32.20
2017-11-09T00:32:37.520Z,29.50
2017-11-09T00:35:05.181Z,33.83
2017-11-09T00:37:32.835Z,30.40
2017-11-09T00:40:00.460Z,31.37
2017-11-09T00:42:28.149Z,32.30
2017-11-09T00:44:55.762Z,30.70
2017-11-09T00:47:24.189Z,29.33
2017-11-09T00:49:51.804Z,26.13
2017-11-09T00:52:20.265Z,29.10
2017-11-09T00:54:47.894Z,28.63
2017-11-09T00:57:15.538Z,27.00
2017-11-09T00:59:43.195Z,24.67
2017-11-09T01:02:10.830Z,29.37
2017-11-09T01:04:38.499Z,26.77
2017-11-09T01:07:06.118Z,27.60
2017-11-09T01:09:33.766Z,32.27
2017-11-09T01:12:01.404Z,31.83
2017-11-09T01:14:29.034Z,25.27
2017-11-09T01:16:56.757Z,25.77
2017-11-09T01:19:24.389Z,26.63
2017-11-09T01:21:52.057Z,26.50
2017-11-09T01:24:19.698Z,27.93
2017-11-09T01:26:47.349Z,22.73
2017-11-09T01:29:15.747Z,24.90
2017-11-09T01:31:43.521Z,26.43
2017-11-09T01:34:11.135Z,25.00
2017-11-09T01:36:38.834Z,21.60
2017-11-09T01:39:06.489Z,24.57
2017-11-09T01:41:34.111Z,26.20
2017-11-09T01:44:01.767Z,23.43
2017-11-09T01:46:29.409Z,25.60
2017-11-09T01:48:57.065Z,22.70
2017-11-09T01:51:24.708Z,21.00
2017-11-09T01:53:52.357Z,22.23
2017-11-09T01:56:20.030Z,22.17
2017-11-09T01:58:47.784Z,23.43
2017-11-09T02:01:15.444Z,22.13
2017-11-09T02:03:43.105Z,24.77
2017-11-09T02:06:10.725Z,22.73
2017-11-09T02:08:38.449Z,23.00
2017-11-09T02:11:06.865Z,22.10
2017-11-09T02:13:34.587Z,19.80
2017-11-09T02:16:02.277Z,21.73
2017-11-09T02:18:29.939Z,19.80
2017-11-09T02:20:57.652Z,19.60
2017-11-09T02:23:25.347Z,22.83
2017-11-09T02:25:53.854Z,18.27
2017-11-09T02:28:21.540Z,17.40
2017-11-09T02:30:49.252Z,20.50
2017-11-09T02:33:17.697Z,21.40
2017-11-09T02:35:45.450Z,21.40
2017-11-09T02:38:13.117Z,17.97
2017-11-09T02:40:40.800Z,17.47
2017-11-09T02:43:09.240Z,18.80
2017-11-09T02:45:36.890Z,20.20
2017-11-09T02:48:04.595Z,20.70
2017-11-09T02:50:33.016Z,22.50
2017-11-09T02:53:00.746Z,23.57
2017-11-09T02:55:29.236Z,22.47
2017-11-09T02:57:57.805Z,21.67
2017-11-09T03:00:26.269Z,19.53
2017-11-09T03:02:53.929Z,23.57
2017-11-09T03:05:21.577Z,23.70
2017-11-09T03:07:49.256Z,23.90
2017-11-09T03:10:16.892Z,24.07
2017-11-09T03:12:44.541Z,21.97
2017-11-09T03:15:12.208Z,21.23
2017-11-09T03:17:39.828Z,18.43
2017-11-09T03:20:07.491Z,23.07
2017-11-09T03:22:35.125Z,20.80
2017-11-09T03:25:03.624Z,21.83
2017-11-09T03:27:31.261Z,21.33
2017-11-09T03:29:58.921Z,21.77
2017-11-09T03:32:27.309Z,17.53
2017-11-09T03:34:55.728Z,25.47
2017-11-09T03:37:23.389Z,16.20
2017-11-09T03:39:51.015Z,19.37
2017-11-09T03:42:18.697Z,19.83
2017-11-09T03:44:46.397Z,18.50
2017-11-09T03:47:14.118Z,21.53
2017-11-09T03:49:41.748Z,18.50
2017-11-09T03:52:10.165Z,19.47
2017-11-09T03:54:38.551Z,18.80
2017-11-09T03:57:06.975Z,16.03
2017-11-09T03:59:35.362Z,18.60
2017-11-09T04:02:03.821Z,17.73
2017-11-09T04:04:31.448Z,18.30
2017-11-09T04:06:59.161Z,19.63
2017-11-09T04:09:27.542Z,16.37
2017-11-09T04:11:55.964Z,18.73
2017-11-09T04:14:23.601Z,24.70
2017-11-09T04:16:51.257Z,20.93
2017-11-09T04:19:18.905Z,19.60
2017-11-09T04:21:46.549Z,21.03
2017-11-09T04:24:14.958Z,22.60
2017-11-09T04:26:42.624Z,18.83
2017-11-09T04:29:10.245Z,18.20
2017-11-09T04:31:38.688Z,21.83
2017-11-09T04:34:06.316Z,17.27
2017-11-09T04:36:34.719Z,19.13
2017-11-09T04:39:02.369Z,21.60
2017-11-09T04:41:30.006Z,22.37
2017-11-09T04:43:58.469Z,21.10
2017-11-09T04:46:26.095Z,20.77
2017-11-09T04:48:53.778Z,23.60
2017-11-09T04:51:21.422Z,22.20
2017-11-09T04:53:49.093Z,22.53
2017-11-09T04:56:17.481Z,22.50
2017-11-09T04:58:45.955Z,23.10
2017-11-09T05:01:14.351Z,23.30
2017-11-09T05:03:42.049Z,23.07
2017-11-09T05:06:09.698Z,21.90
2017-11-09T05:08:37.322Z,22.93
2017-11-09T05:11:05.756Z,22.90
2017-11-09T05:13:33.380Z,21.87
2017-11-09T05:16:01.044Z,21.83
2017-11-09T05:18:28.674Z,21.67
2017-11-09T05:20:57.098Z,22.70
2017-11-09T05:23:24.724Z,22.53
2017-11-09T05:25:52.377Z,20.60
2017-11-09T05:28:20.785Z,21.07
2017-11-09T05:30:48.502Z,21.03
2017-11-09T05:33:16.897Z,25.33
2017-11-09T05:35:45.297Z,20.53
2017-11-09T05:38:12.953Z,19.87
2017-11-09T05:40:40.581Z,20.63
2017-11-09T05:43:09.012Z,22.00
2017-11-09T05:45:36.658Z,21.37
2017-11-09T05:48:04.341Z,22.13
2017-11-09T05:50:31.965Z,27.57
2017-11-09T05:52:59.627Z,22.00
2017-11-09T05:55:27.322Z,24.33
2017-11-09T05:57:54.999Z,22.40
2017-11-09T06:00:22.706Z,23.30
2017-11-09T06:02:51.502Z,24.33
2017-11-09T06:05:19.189Z,22.87
2017-11-09T06:07:46.881Z,25.00
2017-11-09T06:10:15.324Z,25.60
2017-11-09T06:12:42.985Z,22.60
2017-11-09T06:15:10.729Z,23.33
2017-11-09T06:17:38.373Z,25.00
2017-11-09T06:20:06.042Z,22.67
2017-11-09T06:22:33.665Z,21.73
2017-11-09T06:25:02.084Z,20.77
2017-11-09T06:27:29.725Z,23.73
2017-11-09T06:29:57.394Z,20.53
2017-11-09T06:32:25.015Z,22.10
2017-11-09T06:34:52.668Z,23.20
2017-11-09T06:37:20.315Z,19.00
2017-11-09T06:39:47.996Z,22.77
2017-11-09T06:42:15.628Z,22.20
2017-11-09T06:44:43.285Z,22.80
2017-11-09T06:47:10.926Z,17.20
2017-11-09T06:49:38.602Z,20.50
2017-11-09T06:52:06.236Z,21.87
2017-11-09T06:54:33.861Z,20.77
2017-11-09T06:57:02.281Z,20.00
2017-11-09T06:59:29.942Z,20.57
2017-11-09T07:01:57.630Z,19.87
2017-11-09T07:04:25.245Z,20.47
2017-11-09T07:06:52.879Z,23.63
2017-11-09T07:09:21.324Z,19.17
2017-11-09T07:11:48.936Z,20.13
2017-11-09T07:14:17.364Z,17.57
2017-11-09T07:16:45.028Z,16.93
2017-11-09T07:19:12.685Z,18.70
2017-11-09T07:21:40.313Z,19.90
2017-11-09T07:24:07.984Z,18.67
2017-11-09T07:26:35.613Z,18.43
2017-11-09T07:29:03.282Z,17.03
2017-11-09T07:31:30.926Z,18.13
2017-11-09T07:33:59.361Z,21.10
2017-11-09T07:36:26.988Z,24.07
2017-11-09T07:38:54.652Z,20.53
2017-11-09T07:41:22.265Z,20.97
2017-11-09T07:43:49.928Z,22.60
2017-11-09T07:46:18.321Z,19.43
2017-11-09T07:48:45.993Z,20.27
2017-11-09T07:51:13.624Z,24.60
2017-11-09T07:53:41.287Z,28.50
2017-11-09T07:56:08.911Z,22.43
2017-11-09T07:58:36.592Z,19.07
2017-11-09T08:01:04.216Z,26.30
2017-11-09T08:03:31.901Z,23.37
2017-11-09T08:05:59.546Z,24.10
2017-11-09T08:08:27.211Z,23.20
2017-11-09T08:10:54.842Z,23.07
2017-11-09T08:13:22.577Z,23.73
2017-11-09T08:15:50.334Z,22.27
2017-11-09T08:18:18.728Z,20.07
2017-11-09T08:20:46.397Z,25.93
2017-11-09T08:23:14.026Z,22.43
2017-11-09T08:25:45.925Z,20.10
2017-11-09T08:28:14.310Z,21.23
2017-11-09T08:30:42.516Z,20.83
2017-11-09T08:33:11.563Z,21.43
2017-11-09T08:35:39.258Z,19.57
2017-11-09T08:38:06.932Z,19.80
2017-11-09T08:40:34.640Z,20.30
2017-11-09T08:43:02.280Z,20.37
2017-11-09T08:45:30.669Z,21.97
2017-11-09T08:47:59.092Z,17.97
2017-11-09T08:50:26.735Z,21.73
2017-11-09T08:52:54.393Z,25.20
2017-11-09T08:55:22.030Z,21.53
2017-11-09T08:57:49.706Z,19.63
2017-11-09T09:00:17.323Z,19.80
2017-11-09T09:02:44.969Z,20.40
2017-11-09T09:05:12.622Z,19.20
2017-11-09T09:07:40.299Z,16.43
2017-11-09T09:10:07.961Z,19.87
2017-11-09T09:12:35.613Z,20.70
2017-11-09T09:15:03.353Z,22.33
2017-11-09T09:17:31.081Z,25.23
2017-11-09T09:19:58.753Z,21.50
2017-11-09T09:25:39.529Z,25.13
2017-11-09T09:28:22.992Z,20.43
2017-11-09T09:30:50.682Z,20.50
2017-11-09T09:33:25.978Z,21.50
2017-11-09T09:36:08.660Z,20.93
2017-11-09T09:41:45.461Z,23.43
2017-11-09T09:44:13.172Z,23.53
2017-11-09T09:46:40.847Z,22.80
2017-11-09T09:49:08.553Z,18.07
2017-11-09T09:51:36.186Z,24.27
2017-11-09T09:54:04.784Z,27.03
2017-11-09T09:56:32.436Z,26.20
2017-11-09T09:59:00.114Z,26.30
2017-11-09T10:01:27.776Z,21.57
2017-11-09T10:03:55.424Z,24.80
2017-11-09T10:06:23.073Z,22.07
2017-11-09T10:08:51.497Z,26.73
2017-11-09T10:11:19.155Z,25.93
2017-11-09T10:13:46.783Z,31.23
2017-11-09T10:16:14.447Z,25.17
2017-11-09T10:18:42.082Z,23.80
2017-11-09T10:21:10.630Z,22.90
2017-11-09T10:23:38.352Z,22.00
2017-11-09T10:26:05.990Z,26.00
2017-11-09T10:28:34.430Z,23.10
2017-11-09T10:31:02.046Z,23.23
2017-11-09T10:33:29.709Z,19.60
2017-11-09T10:35:57.333Z,22.90
2017-11-09T10:38:25.001Z,26.70
2017-11-09T10:40:53.403Z,23.80
2017-11-09T10:43:21.239Z,24.30
2017-11-09T10:45:49.696Z,20.47
2017-11-09T10:48:17.319Z,20.83
2017-11-09T10:50:45.767Z,26.90
2017-11-09T10:53:14.178Z,22.10
2017-11-09T10:55:41.845Z,21.90
2017-11-09T10:58:09.516Z,21.30
2017-11-09T11:00:42.941Z,23.87
2017-11-09T11:03:10.631Z,23.87
2017-11-09T11:05:38.328Z,20.50
2017-11-09T11:08:06.009Z,20.23
2017-11-09T11:10:33.706Z,25.80
2017-11-09T11:13:02.114Z,21.70
2017-11-09T11:15:29.834Z,22.00
2017-11-09T11:17:58.249Z,21.97
2017-11-09T11:20:25.890Z,20.40
2017-11-09T11:22:53.575Z,19.57
2017-11-09T11:25:21.267Z,19.10
2017-11-09T11:27:48.930Z,22.47
2017-11-09T11:30:16.657Z,17.83
2017-11-09T11:32:44.394Z,19.73
2017-11-09T11:35:12.142Z,19.53
2017-11-09T11:37:40.625Z,23.40
2017-11-09T11:40:09.048Z,20.87
2017-11-09T11:42:37.504Z,16.77
2017-11-09T11:45:05.201Z,17.90
2017-11-09T11:47:34.960Z,18.63
2017-11-09T11:50:03.473Z,16.67
2017-11-09T11:52:31.117Z,17.13
2017-11-09T11:54:58.825Z,19.47
2017-11-09T11:57:26.473Z,19.10
2017-11-09T11:59:54.261Z,17.00
2017-11-09T12:02:22.797Z,18.30
2017-11-09T12:04:52.344Z,17.37
2017-11-09T12:07:20.060Z,20.53
2017-11-09T12:09:48.555Z,20.57
2017-11-09T12:12:16.255Z,19.20
2017-11-09T12:14:45.362Z,19.03
2017-11-09T12:17:13.055Z,19.13
2017-11-09T12:19:40.718Z,16.30
2017-11-09T12:22:08.336Z,21.67
2017-11-09T12:24:36.781Z,19.80
2017-11-09T12:27:04.408Z,23.90
2017-11-09T12:29:33.307Z,25.07
2017-11-09T12:32:02.912Z,21.00
2017-11-09T12:34:30.584Z,23.80
2017-11-09T12:36:58.242Z,27.53
2017-11-09T12:39:25.860Z,25.80
2017-11-09T12:41:54.282Z,22.10
2017-11-09T12:44:21.924Z,23.30
2017-11-09T12:46:49.684Z,21.77
2017-11-09T12:49:17.336Z,24.73
2017-11-09T12:51:45.009Z,22.10
2017-11-09T12:54:12.666Z,22.53
2017-11-09T12:56:40.367Z,18.23
2017-11-09T12:59:08.013Z,20.87
2017-11-09T13:01:35.641Z,18.07
2017-11-09T13:04:03.321Z,21.60
2017-11-09T13:06:31.001Z,19.60
2017-11-09T13:08:58.659Z,25.00
2017-11-09T13:11:26.334Z,19.40
2017-11-09T13:13:53.992Z,19.50
2017-11-09T13:16:21.669Z,19.60
2017-11-09T13:18:50.125Z,18.07
2017-11-09T13:21:17.793Z,20.40
2017-11-09T13:23:45.440Z,21.00
2017-11-09T13:26:13.113Z,26.40
2017-11-09T13:28:40.760Z,19.20
2017-11-09T13:31:08.441Z,18.63
2017-11-09T13:33:38.968Z,16.20
2017-11-09T13:36:06.629Z,18.30
2017-11-09T13:38:35.087Z,18.87
2017-11-09T13:41:02.874Z,20.60
2017-11-09T13:43:30.510Z,17.20
2017-11-09T13:45:58.331Z,19.60
2017-11-09T13:48:26.061Z,20.23
2017-11-09T13:50:54.467Z,19.30
2017-11-09T13:53:22.286Z,25.50
2017-11-09T13:55:49.925Z,20.00
2017-11-09T13:58:17.569Z,22.63
2017-11-09T14:00:45.190Z,19.37
2017-11-09T14:03:12.998Z,23.73
2017-11-09T14:05:40.622Z,24.33
2017-11-09T14:08:09.013Z,18.83
2017-11-09T14:10:36.664Z,18.60
2017-11-09T14:13:04.309Z,21.43
2017-11-09T14:15:32.737Z,18.57
2017-11-09T14:18:00.355Z,18.20
2017-11-09T14:20:28.026Z,19.70
2017-11-09T14:22:56.427Z,22.40
2017-11-09T14:25:24.784Z,17.30
2017-11-09T14:27:53.338Z,16.13
2017-11-09T14:30:21.866Z,20.67
2017-11-09T14:32:49.496Z,20.63
2017-11-09T14:35:17.195Z,19.77
2017-11-09T14:37:44.826Z,18.93
2017-11-09T14:40:12.517Z,17.50
2017-11-09T14:42:40.132Z,19.90
2017-11-09T14:45:08.529Z,17.80
2017-11-09T14:47:36.192Z,19.87
2017-11-09T14:50:03.893Z,19.40
2017-11-09T14:52:31.556Z,19.43
2017-11-09T14:54:59.191Z,17.13
2017-11-09T14:57:26.841Z,23.40
2017-11-09T14:59:54.470Z,29.00
2017-11-09T15:02:22.940Z,23.30
2017-11-09T15:04:51.344Z,22.90
2017-11-09T15:07:18.994Z,19.50
2017-11-09T15:09:46.657Z,18.40
2017-11-09T15:12:14.328Z,19.97
2017-11-09T15:14:41.988Z,23.43
2017-11-09T15:17:09.690Z,21.53
2017-11-09T15:19:37.373Z,19.10
2017-11-09T15:22:05.888Z,21.40
2017-11-09T15:24:33.585Z,24.10
2017-11-09T15:27:01.295Z,20.90
2017-11-09T15:29:29.739Z,21.00
2017-11-09T15:31:57.396Z,22.97
2017-11-09T15:34:25.088Z,17.27
2017-11-09T15:36:52.744Z,21.37
2017-11-09T15:39:21.198Z,15.10
2017-11-09T15:41:48.860Z,27.77
2017-11-09T15:44:16.560Z,18.37
2017-11-09T15:46:44.188Z,18.90
2017-11-09T15:49:11.864Z,17.70
2017-11-09T15:51:40.250Z,26.23
2017-11-09T15:54:08.044Z,17.37
2017-11-09T15:56:35.660Z,18.93
2017-11-09T15:59:04.106Z,19.80
2017-11-09T16:01:31.731Z,19.57
2017-11-09T16:03:59.480Z,19.63
2017-11-09T16:06:27.114Z,19.17
2017-11-09T16:08:54.741Z,22.63
2017-11-09T16:11:22.448Z,21.00
2017-11-09T16:13:50.873Z,19.23
2017-11-09T16:16:18.564Z,21.50
2017-11-09T16:18:46.193Z,25.63
2017-11-09T16:21:13.884Z,23.27
2017-11-09T16:23:41.509Z,30.40
2017-11-09T16:26:09.213Z,24.73
2017-11-09T16:28:37.030Z,26.53
2017-11-09T16:31:05.549Z,26.33
2017-11-09T16:33:33.205Z,28.30
2017-11-09T16:36:01.032Z,22.20
2017-11-09T16:38:30.218Z,21.37
2017-11-09T16:40:58.213Z,25.23
2017-11-09T16:43:26.772Z,24.40
2017-11-09T16:45:54.397Z,26.70
2017-11-09T16:48:22.817Z,23.47
2017-11-09T16:50:50.466Z,28.40
2017-11-09T16:53:18.132Z,21.20
2017-11-09T16:55:45.761Z,23.43
2017-11-09T16:58:14.188Z,23.30
2017-11-09T17:00:41.858Z,23.93
2017-11-09T17:03:09.533Z,22.60
2017-11-09T17:05:37.158Z,24.97
2017-11-09T17:08:04.926Z,21.40
2017-11-09T17:10:32.638Z,24.73
2017-11-09T17:13:00.370Z,22.23
2017-11-09T17:15:28.020Z,28.03
2017-11-09T17:17:55.767Z,23.60
2017-11-09T17:20:23.445Z,28.70
2017-11-09T17:22:51.165Z,26.20
2017-11-09T17:25:18.801Z,28.10
2017-11-09T17:27:47.353Z,26.53
2017-11-09T17:30:15.008Z,34.93
2017-11-09T17:32:42.696Z,28.40
2017-11-09T17:35:11.117Z,25.90
2017-11-09T17:37:38.765Z,28.10
2017-11-09T17:40:06.412Z,24.60
2017-11-09T17:42:39.783Z,27.17
2017-11-09T17:45:08.229Z,29.00
2017-11-09T17:47:35.840Z,29.17
2017-11-09T17:50:04.305Z,29.60
2017-11-09T17:52:32.729Z,27.03
2017-11-09T17:55:00.412Z,25.20
2017-11-09T17:57:28.082Z,28.97
2017-11-09T18:00:01.317Z,31.60
2017-11-09T18:02:29.012Z,32.47
2017-11-09T18:04:56.703Z,25.20
2017-11-09T18:07:24.320Z,30.47
2017-11-09T18:09:51.938Z,26.20
2017-11-09T18:12:20.372Z,28.03
2017-11-09T18:14:48.056Z,38.13
2017-11-09T18:17:15.693Z,27.90
2017-11-09T18:19:43.490Z,29.87
2017-11-09T18:22:11.174Z,30.50
2017-11-09T18:24:39.589Z,30.13
2017-11-09T18:27:07.255Z,25.70
2017-11-09T18:29:34.889Z,30.27
2017-11-09T18:32:02.548Z,31.13
2017-11-09T18:34:30.181Z,35.57
2017-11-09T18:36:58.637Z,27.33
2017-11-09T18:39:26.319Z,28.77
2017-11-09T18:41:54.738Z,30.60
2017-11-09T18:44:22.465Z,29.97
2017-11-09T18:46:50.113Z,29.40
2017-11-09T18:49:18.605Z,30.07
2017-11-09T18:51:46.241Z,30.57
2017-11-09T18:54:13.900Z,27.37
2017-11-09T18:56:41.633Z,32.20
2017-11-09T18:59:14.940Z,30.07
2017-11-09T19:01:42.575Z,31.57
2017-11-09T19:04:10.379Z,31.83
2017-11-09T19:06:38.101Z,29.77
2017-11-09T19:09:09.339Z,31.50
2017-11-09T19:11:37.169Z,29.80
2017-11-09T19:14:05.706Z,32.77
2017-11-09T19:16:33.497Z,32.70
2017-11-09T19:19:01.972Z,28.93
2017-11-09T19:21:29.703Z,23.97
2017-11-09T19:23:57.433Z,29.30
2017-11-09T19:26:25.247Z,28.37
2017-11-09T19:28:53.040Z,30.37
2017-11-09T19:31:21.499Z,28.73
2017-11-09T19:33:49.232Z,28.00
2017-11-09T19:36:17.085Z,28.40
2017-11-09T19:38:44.988Z,32.07
2017-11-09T19:41:12.844Z,27.97
2017-11-09T19:43:40.668Z,27.77
2017-11-09T19:46:08.552Z,40.93
2017-11-09T19:48:36.441Z,30.20
2017-11-09T19:51:04.277Z,29.80
2017-11-09T19:53:32.054Z,31.87
2017-11-09T19:55:59.909Z,32.70
2017-11-09T19:58:27.739Z,28.77
2017-11-09T20:00:55.900Z,27.43
2017-11-09T20:03:23.637Z,32.40
2017-11-09T20:05:52.126Z,29.30
2017-11-09T20:08:20.614Z,28.40
2017-11-09T20:10:49.111Z,34.37
2017-11-09T20:13:16.878Z,30.63
2017-11-09T20:15:44.624Z,30.10
2017-11-09T20:18:13.133Z,26.17
2017-11-09T20:20:41.537Z,27.87
2017-11-09T20:23:09.250Z,31.90
2017-11-09T20:25:36.910Z,28.47
2017-11-09T20:28:04.646Z,29.23
2017-11-09T20:30:32.400Z,25.67
2017-11-09T20:33:00.250Z,32.50
2017-11-09T20:35:28.020Z,30.77
2017-11-09T20:37:59.485Z,28.13
2017-11-09T20:40:27.500Z,29.27
2017-11-09T20:42:55.366Z,28.90
2017-11-09T20:45:23.058Z,29.77
2017-11-09T20:47:50.690Z,32.53
2017-11-09T20:50:21.528Z,26.90
2017-11-09T20:52:50.040Z,28.57
2017-11-09T20:55:17.763Z,33.33
2017-11-09T20:57:45.509Z,31.07
2017-11-09T21:00:13.348Z,31.13
2017-11-09T21:02:41.875Z,30.10
2017-11-09T21:05:09.697Z,35.53
2017-11-09T21:07:38.194Z,31.47
2017-11-09T21:10:05.825Z,33.13
2017-11-09T21:12:33.973Z,31.17
2017-11-09T21:15:01.638Z,29.63
2017-11-09T21:17:29.290Z,30.23
2017-11-09T21:19:56.908Z,31.97
2017-11-09T21:22:24.581Z,29.33
2017-11-09T21:24:52.199Z,36.37
2017-11-09T21:27:20.639Z,33.53
2017-11-09T21:29:48.280Z,28.50
2017-11-09T21:32:16.701Z,33.13
2017-11-09T21:34:44.320Z,32.23
2017-11-09T21:37:11.996Z,34.43
2017-11-09T21:39:39.645Z,30.57
2017-11-09T21:42:08.037Z,31.93
2017-11-09T21:44:35.696Z,29.60
2017-11-09T21:47:03.936Z,28.90
2017-11-09T21:49:32.099Z,29.77
2017-11-09T21:51:59.938Z,33.77
2017-11-09T21:54:27.875Z,31.67
2017-11-09T21:56:55.710Z,32.00
2017-11-09T21:59:23.657Z,33.93
2017-11-09T22:01:51.373Z,31.67
2017-11-09T22:04:19.123Z,33.10
2017-11-09T22:06:46.893Z,31.17
2017-11-09T22:09:14.629Z,34.00
2017-11-09T22:11:42.606Z,30.50
2017-11-09T22:14:11.530Z,33.67
2017-11-09T22:16:40.750Z,33.40
2017-11-09T22:19:09.701Z,31.13
2017-11-09T22:21:37.461Z,33.50
2017-11-09T22:24:05.313Z,37.67
2017-11-09T22:26:33.314Z,34.27
2017-11-09T22:29:01.317Z,27.43
2017-11-09T22:31:30.108Z,32.40
2017-11-09T22:33:58.895Z,28.90
2017-11-09T22:36:26.624Z,31.30
2017-11-09T22:38:54.424Z,32.23
2017-11-09T22:41:22.346Z,31.20
2017-11-09T22:43:50.177Z,29.33
2017-11-09T22:46:18.321Z,33.50
2017-11-09T22:48:46.299Z,35.60
2017-11-09T22:51:14.105Z,29.67
2017-11-09T22:53:42.069Z,32.97
2017-11-09T22:56:09.724Z,31.10
2017-11-09T22:58:37.371Z,28.60
2017-11-09T23:01:05.169Z,31.23
2017-11-09T23:03:33.561Z,28.97
2017-11-09T23:06:02.060Z,34.20
2017-11-09T23:08:29.685Z,27.87
2017-11-09T23:10:57.392Z,29.07
2017-11-09T23:13:25.073Z,32.37
2017-11-09T23:15:52.763Z,32.43
2017-11-09T23:18:20.387Z,32.00
2017-11-09T23:20:48.102Z,33.07
2017-11-09T23:23:16.492Z,30.00
2017-11-09T23:25:44.139Z,30.63
2017-11-09T23:28:12.564Z,30.87
2017-11-09T23:30:40.229Z,29.30
2017-11-09T23:33:07.873Z,32.40
2017-11-09T23:35:35.651Z,27.10
2017-11-09T23:38:03.275Z,31.27
2017-11-09T23:40:30.912Z,29.93
2017-11-09T23:42:59.337Z,28.03
2017-11-09T23:45:26.960Z,32.40
2017-11-09T23:47:55.396Z,27.13
2017-11-09T23:50:23.047Z,30.83
2017-11-09T23:52:50.681Z,32.13
2017-11-09T23:55:18.319Z,28.60
2017-11-09T23:57:46.041Z,27.30
